createdAt,value
2019-05-29T00:00:32.665Z,3.10
2019-05-29T00:05:26.731Z,3.40
2019-05-29T00:10:20.689Z,3.43
2019-05-29T00:15:14.750Z,3.37
2019-05-29T00:20:08.802Z,3.20
2019-05-29T00:25:04.498Z,3.20
2019-05-29T00:29:58.460Z,3.43
2019-05-29T00:34:52.455Z,3.40
2019-05-29T00:39:46.404Z,3.17
2019-05-29T00:44:40.364Z,3.37
2019-05-29T00:49:34.460Z,3.50
2019-05-29T00:54:28.409Z,3.60
2019-05-29T00:59:22.472Z,3.87
2019-05-29T01:04:17.809Z,3.70
2019-05-29T01:09:12.321Z,3.10
2019-05-29T01:14:06.480Z,4.00
2019-05-29T01:19:20.286Z,3.60
2019-05-29T01:24:14.691Z,3.53
2019-05-29T01:29:08.656Z,3.50
2019-05-29T01:34:02.738Z,3.27
2019-05-29T01:38:56.685Z,3.80
2019-05-29T01:43:50.837Z,3.40
2019-05-29T01:48:44.831Z,3.47
2019-05-29T01:53:38.915Z,4.00
2019-05-29T01:58:32.915Z,4.20
2019-05-29T02:03:28.231Z,3.97
2019-05-29T02:08:22.262Z,3.90
2019-05-29T02:13:17.265Z,3.90
2019-05-29T02:18:11.288Z,3.80
2019-05-29T02:23:05.270Z,3.90
2019-05-29T02:27:59.253Z,3.80
2019-05-29T02:32:53.358Z,3.93
2019-05-29T02:37:47.333Z,4.10
2019-05-29T02:42:41.471Z,3.90
2019-05-29T02:47:35.543Z,4.40
2019-05-29T02:52:30.770Z,3.83
2019-05-29T02:57:26.756Z,3.53
2019-05-29T03:02:21.508Z,4.03
2019-05-29T03:07:15.933Z,3.90
2019-05-29T03:12:09.889Z,3.93
2019-05-29T03:17:03.908Z,4.37
2019-05-29T03:21:57.834Z,3.77
2019-05-29T03:26:51.796Z,4.33
2019-05-29T03:31:48.143Z,4.70
2019-05-29T03:36:47.436Z,4.33
2019-05-29T03:41:38.995Z,5.17
2019-05-29T03:46:41.067Z,5.10
2019-05-29T03:51:30.133Z,5.00
2019-05-29T03:56:26.377Z,4.57
2019-05-29T04:01:20.618Z,5.67
2019-05-29T04:06:14.584Z,5.67
2019-05-29T04:11:08.590Z,5.07
2019-05-29T04:16:02.723Z,5.07
2019-05-29T04:20:57.424Z,5.70
2019-05-29T04:25:54.786Z,5.80
2019-05-29T04:30:48.849Z,5.73
2019-05-29T04:35:42.818Z,6.07
2019-05-29T04:40:37.879Z,6.10
2019-05-29T04:45:33.477Z,5.67
2019-05-29T04:50:29.159Z,6.10
2019-05-29T04:55:23.379Z,6.23
2019-05-29T05:00:17.350Z,6.07
2019-05-29T05:05:14.410Z,6.60
2019-05-29T05:10:09.780Z,6.47
2019-05-29T05:15:04.848Z,6.87
2019-05-29T05:19:58.804Z,7.57
2019-05-29T05:24:52.776Z,7.40
2019-05-29T05:29:46.746Z,7.60
2019-05-29T05:34:41.047Z,6.90
2019-05-29T05:39:35.250Z,6.90
2019-05-29T05:44:29.257Z,6.70
2019-05-29T05:49:23.277Z,6.53
2019-05-29T05:54:17.239Z,6.17
2019-05-29T05:59:11.330Z,5.37
2019-05-29T06:04:05.415Z,5.40
2019-05-29T06:08:59.390Z,4.83
2019-05-29T06:13:53.366Z,3.87
2019-05-29T06:18:47.315Z,3.60
2019-05-29T06:23:41.403Z,2.67
2019-05-29T06:28:35.390Z,2.90
2019-05-29T06:33:29.355Z,2.87
2019-05-29T06:38:23.315Z,2.80
2019-05-29T06:43:22.183Z,2.77
2019-05-29T06:48:37.898Z,2.57
2019-05-29T06:53:15.847Z,2.40
2019-05-29T06:58:10.024Z,2.60
2019-05-29T07:03:04.181Z,3.00
2019-05-29T07:07:58.189Z,2.70
2019-05-29T07:12:52.133Z,2.80
2019-05-29T07:17:46.681Z,2.33
2019-05-29T07:22:40.917Z,2.10
2019-05-29T07:27:35.135Z,1.60
2019-05-29T07:32:29.120Z,1.83
2019-05-29T07:37:23.235Z,1.60
2019-05-29T07:42:17.209Z,1.67
2019-05-29T07:47:11.175Z,1.70
2019-05-29T07:52:05.276Z,1.87
2019-05-29T07:56:59.344Z,1.83
2019-05-29T08:01:53.355Z,1.52
2019-05-29T08:06:52.262Z,1.97
2019-05-29T08:11:43.553Z,2.07
2019-05-29T08:16:37.609Z,1.42
2019-05-29T08:21:31.576Z,1.73
2019-05-29T08:26:25.631Z,1.50
2019-05-29T08:31:19.596Z,1.70
2019-05-29T08:36:13.550Z,1.50
2019-05-29T08:41:07.502Z,1.43
2019-05-29T08:46:01.468Z,1.67
2019-05-29T08:50:55.485Z,1.60
2019-05-29T08:55:50.652Z,1.10
2019-05-29T09:00:48.541Z,1.15
2019-05-29T09:05:40.658Z,1.12
2019-05-29T09:10:34.750Z,1.15
2019-05-29T09:15:28.706Z,1.17
2019-05-29T09:20:37.115Z,1.07
2019-05-29T09:25:19.173Z,0.98
2019-05-29T09:30:14.965Z,0.90
2019-05-29T09:35:09.332Z,0.90
2019-05-29T09:40:07.123Z,1.02
2019-05-29T09:45:01.179Z,1.22
2019-05-29T09:49:55.217Z,1.15
2019-05-29T09:54:49.288Z,1.00
2019-05-29T09:59:43.352Z,0.85
2019-05-29T10:04:37.322Z,0.88
2019-05-29T10:09:31.361Z,0.70
2019-05-29T10:14:25.394Z,0.80
2019-05-29T10:19:19.494Z,0.80
2019-05-29T10:24:13.728Z,0.70
2019-05-29T10:29:09.642Z,0.90
2019-05-29T10:34:03.727Z,1.10
2019-05-29T10:38:57.773Z,0.90
2019-05-29T10:43:51.758Z,0.80
2019-05-29T10:48:49.297Z,0.78
2019-05-29T10:53:41.715Z,0.90
2019-05-29T10:58:48.353Z,0.70
2019-05-29T11:03:31.938Z,0.85
2019-05-29T11:08:26.201Z,0.80
2019-05-29T11:13:20.275Z,0.90
2019-05-29T11:18:14.525Z,0.80
2019-05-29T11:23:08.601Z,1.07
2019-05-29T11:28:02.794Z,0.75
2019-05-29T11:32:57.583Z,0.85
2019-05-29T11:37:52.701Z,0.80
2019-05-29T11:42:46.683Z,0.85
2019-05-29T11:47:40.688Z,0.75
2019-05-29T11:52:43.145Z,0.88
2019-05-29T11:57:30.692Z,1.15
2019-05-29T12:02:24.740Z,0.70
2019-05-29T12:07:18.882Z,0.70
2019-05-29T12:12:12.992Z,0.80
2019-05-29T12:17:06.941Z,0.85
2019-05-29T12:22:02.594Z,0.60
2019-05-29T12:26:56.881Z,0.70
2019-05-29T12:31:50.859Z,0.83
2019-05-29T12:36:46.039Z,0.72
2019-05-29T12:41:40.001Z,0.80
2019-05-29T12:46:33.971Z,1.10
2019-05-29T12:51:28.270Z,0.93
2019-05-29T12:56:22.304Z,0.90
2019-05-29T13:01:16.278Z,1.00
2019-05-29T13:06:10.240Z,1.12
2019-05-29T13:11:05.046Z,1.10
2019-05-29T13:15:59.145Z,0.98
2019-05-29T13:20:53.112Z,0.90
2019-05-29T13:25:47.075Z,1.20
2019-05-29T13:30:41.057Z,1.30
2019-05-29T13:35:35.134Z,1.57
2019-05-29T13:40:29.206Z,1.62
2019-05-29T13:45:23.269Z,1.60
2019-05-29T13:50:17.700Z,1.20
2019-05-29T13:55:12.266Z,1.30
2019-05-29T14:00:30.256Z,1.17
2019-05-29T14:05:06.965Z,1.20
2019-05-29T14:10:01.376Z,1.40
2019-05-29T14:14:55.788Z,1.35
2019-05-29T14:19:49.772Z,1.70
2019-05-29T14:24:43.867Z,1.40
2019-05-29T14:29:37.857Z,1.37
2019-05-29T14:34:31.943Z,1.85
2019-05-29T14:39:25.921Z,1.60
2019-05-29T14:44:20.018Z,1.55
2019-05-29T14:49:14.120Z,1.30
2019-05-29T14:54:08.888Z,1.15
2019-05-29T14:59:03.677Z,1.37
2019-05-29T15:03:59.332Z,1.60
2019-05-29T15:08:53.315Z,3.27
2019-05-29T15:13:47.600Z,2.15
2019-05-29T15:18:41.584Z,1.80
2019-05-29T15:23:35.644Z,1.70
2019-05-29T15:28:29.652Z,1.95
2019-05-29T15:33:23.726Z,2.20
2019-05-29T15:38:17.807Z,1.98
2019-05-29T15:43:12.854Z,1.85
2019-05-29T15:48:07.136Z,2.10
2019-05-29T15:53:01.105Z,2.40
2019-05-29T15:57:55.211Z,1.60
2019-05-29T16:02:49.878Z,1.52
2019-05-29T16:07:44.072Z,1.40
2019-05-29T16:12:38.150Z,1.57
2019-05-29T16:17:32.120Z,1.47
2019-05-29T16:22:26.106Z,1.60
2019-05-29T16:27:20.081Z,1.70
2019-05-29T16:32:14.056Z,1.40
2019-05-29T16:37:08.317Z,1.75
2019-05-29T16:42:02.573Z,1.55
2019-05-29T16:46:56.656Z,2.50
2019-05-29T16:51:52.686Z,1.95
2019-05-29T16:56:46.783Z,1.75
2019-05-29T17:01:40.866Z,2.10
2019-05-29T17:06:34.867Z,2.20
2019-05-29T17:11:28.875Z,1.70
2019-05-29T17:16:23.091Z,2.80
2019-05-29T17:21:18.582Z,2.20
2019-05-29T17:26:12.758Z,1.90
2019-05-29T17:31:06.817Z,2.10
2019-05-29T17:36:01.031Z,2.15
2019-05-29T17:40:55.106Z,2.10
2019-05-29T17:45:49.194Z,1.90
2019-05-29T17:50:45.332Z,1.75
2019-05-29T17:55:39.304Z,2.20
2019-05-29T18:00:33.391Z,2.20
2019-05-29T18:05:27.542Z,1.98
2019-05-29T18:10:22.803Z,1.90
2019-05-29T18:15:19.284Z,2.10
2019-05-29T18:20:15.317Z,2.30
2019-05-29T18:25:10.356Z,2.08
2019-05-29T18:30:05.862Z,2.15
2019-05-29T18:34:59.851Z,2.05
2019-05-29T18:39:53.974Z,2.10
2019-05-29T18:44:48.085Z,2.02
2019-05-29T18:49:42.379Z,3.30
2019-05-29T18:54:36.486Z,2.80
2019-05-29T18:59:31.755Z,3.10
2019-05-29T19:04:25.955Z,3.65
2019-05-29T19:09:20.042Z,2.98
2019-05-29T19:14:14.178Z,3.47
2019-05-29T19:19:08.249Z,3.75
2019-05-29T19:24:02.450Z,3.62
2019-05-29T19:28:56.418Z,3.40
2019-05-29T19:33:50.503Z,3.52
2019-05-29T19:38:44.484Z,3.37
2019-05-29T19:43:38.795Z,3.30
2019-05-29T19:48:33.318Z,3.02
2019-05-29T19:53:27.995Z,3.40
2019-05-29T19:58:22.499Z,3.15
2019-05-29T20:03:20.004Z,4.85
2019-05-29T20:08:12.543Z,3.77
2019-05-29T20:13:06.642Z,6.22
2019-05-29T20:18:00.667Z,4.35
2019-05-29T20:22:54.718Z,2.77
2019-05-29T20:27:48.927Z,2.55
2019-05-29T20:32:43.197Z,3.55
2019-05-29T20:37:38.361Z,2.62
2019-05-29T20:42:32.581Z,2.98
2019-05-29T20:47:26.774Z,3.02
2019-05-29T20:52:21.141Z,2.95
2019-05-29T20:57:15.176Z,2.80
2019-05-29T21:02:09.375Z,3.20
2019-05-29T21:07:03.578Z,2.92
2019-05-29T21:12:00.890Z,3.12
2019-05-29T21:16:54.825Z,3.15
2019-05-29T21:21:48.926Z,3.17
2019-05-29T21:26:43.309Z,3.60
2019-05-29T21:31:37.622Z,4.03
2019-05-29T21:36:31.736Z,3.47
2019-05-29T21:41:25.957Z,3.47
2019-05-29T21:46:20.052Z,3.45
2019-05-29T21:51:14.053Z,3.70
2019-05-29T21:56:08.026Z,4.00
2019-05-29T22:01:02.138Z,4.10
2019-05-29T22:05:56.181Z,3.87
2019-05-29T22:10:51.379Z,4.12
2019-05-29T22:15:45.519Z,4.10
2019-05-29T22:20:39.681Z,4.80
2019-05-29T22:25:34.654Z,4.70
2019-05-29T22:30:28.850Z,4.87
2019-05-29T22:35:22.917Z,4.80
2019-05-29T22:40:17.024Z,5.10
2019-05-29T22:45:11.192Z,4.87
2019-05-29T22:50:05.486Z,4.70
2019-05-29T22:54:59.980Z,4.58
2019-05-29T22:59:54.115Z,4.90
2019-05-29T23:04:48.088Z,4.87
2019-05-29T23:09:42.165Z,4.90
2019-05-29T23:14:36.124Z,4.58
2019-05-29T23:19:30.302Z,4.45
2019-05-29T23:24:24.298Z,4.62
2019-05-29T23:29:18.344Z,4.45
2019-05-29T23:34:12.419Z,4.30
2019-05-29T23:39:06.524Z,4.45
2019-05-29T23:44:01.618Z,4.53
2019-05-29T23:48:55.644Z,4.58
2019-05-29T23:53:49.627Z,4.40
2019-05-29T23:58:43.696Z,4.20
